Archival Weather

NSFA McMurdo Sound

NSFA McMurdo Sound, Antarctica (NZCM)

Report from: Friday, September 23, 2022 11:56 PM UTC
Current time: Sunday, December 4, 2022 11:14 AM UTC

Current weather
Weather history
Weather forecast

Present weatherLight snow, freezing fog
Temperature-13.5°C (7.7°F)
Wind chill-24.0°C (-11.2°F)
Dew point-16.0°C (3.2°F)
Winds 16 kts (8.2 m/s, 18.4 mph) Vrb
Wind gusts 30 kts (15.4 m/s, 34.5 mph)
Winds variableWinds variable from Northeast (50°) to South-Southeast (150°)
Visibility0.3 mi. (0.6 km)
Clouds Ceiling: Vertical visibility 800 ft. (244 m)
Altimeter28.67 in.Hg (971 mB)
Precip. events Snow began 11:56 PM
Relative humidity81 %
Density altitude-2,073 ft. (-632 m)
Sea-level pressure107.2 kPa (1072 mB, 31.64 in.Hg)
Remarks Fully automated report
System requires maintenance
Special weather observation
Automated weather observing station with precipitation discriminator
Flight conditions Low Instrument Meteorological Conditions
Raw dataSPECI NZCM 232356Z AUTO 11016G30KT 050V150 0550 -SN FZFG VV008 M13/M16 A2867 RMK AO2 SNB2356 SLP715 T11351160 $
An error has occurred. This application may no longer respond until reloaded. Reload 🗙